Time;durP1;ratioP1;P1;durP2;ratioP2;P2;SDS_P1;SDS_P2;PMS_P1;PMS_P2;Temp;Humidity;BMP_temperature;BMP_pressure;BME280_temperature;BME280_humidity;BME280_pressure;Samples;Min_cycle;Max_cycle;Signal;HPM_P1;HPM_P2
2023/03/03 00:02:07;;;;;;;30.73;18.15;;;2.00;99.90;;;;;;5050917;28;20830;-83
2023/03/03 00:04:33;;;;;;;39.25;19.63;;;2.10;99.90;;;;;;5031024;28;20124;-83
2023/03/03 00:06:59;;;;;;;34.22;18.73;;;2.10;99.90;;;;;;5050737;28;20383;-83
2023/03/03 00:09:24;;;;;;;31.70;17.85;;;2.10;99.90;;;;;;5044229;28;20494;-83
2023/03/03 00:11:56;;;;;;;32.63;17.58;;;2.10;99.90;;;;;;5032102;28;20060;-83
2023/03/03 00:14:29;;;;;;;33.88;17.45;;;2.10;99.90;;;;;;5032059;28;20160;-83
2023/03/03 00:16:56;;;;;;;36.78;18.10;;;2.00;99.90;;;;;;5041449;28;20037;-83
2023/03/03 00:19:22;;;;;;;34.60;18.17;;;2.00;99.90;;;;;;5058551;28;20032;-82
2023/03/03 00:21:57;;;;;;;32.85;18.05;;;2.00;99.90;;;;;;5055097;28;20084;-82
2023/03/03 00:24:36;;;;;;;34.08;18.08;;;2.00;99.90;;;;;;5070983;28;20127;-83
2023/03/03 00:27:26;;;;;;;28.63;16.27;;;2.00;99.90;;;;;;5046960;28;20041;-83
2023/03/03 00:30:01;;;;;;;28.27;16.40;;;2.00;99.90;;;;;;5035345;28;20036;-83
2023/03/03 00:32:45;;;;;;;29.08;15.82;;;2.10;99.90;;;;;;5046879;28;20131;-83
2023/03/03 00:35:38;;;;;;;28.27;16.30;;;2.10;99.90;;;;;;5036051;28;20086;-83
2023/03/03 00:38:15;;;;;;;29.90;16.02;;;2.10;99.90;;;;;;5045435;28;20102;-83
2023/03/03 00:40:41;;;;;;;30.65;16.10;;;2.00;99.90;;;;;;5039868;28;20569;-83
2023/03/03 00:43:24;;;;;;;27.85;15.68;;;2.10;99.90;;;;;;5040269;28;20037;-83
2023/03/03 00:45:55;;;;;;;26.90;14.83;;;2.10;99.90;;;;;;5022484;28;20875;-82
2023/03/03 00:48:22;;;;;;;28.08;14.55;;;2.10;99.90;;;;;;5033074;28;20047;-83
2023/03/03 00:50:49;;;;;;;23.05;14.05;;;2.00;99.90;;;;;;5026020;28;20033;-83
2023/03/03 00:53:17;;;;;;;24.13;14.40;;;2.00;99.90;;;;;;5040965;28;20534;-83
2023/03/03 00:55:45;;;;;;;27.10;15.25;;;1.90;99.90;;;;;;5044374;28;20034;-83
2023/03/03 00:58:11;;;;;;;24.05;13.20;;;1.90;99.90;;;;;;5024417;28;20032;-83
2023/03/03 01:00:37;;;;;;;27.05;16.00;;;1.90;99.90;;;;;;5023585;28;20089;-83
2023/03/03 01:03:09;;;;;;;26.10;15.60;;;1.90;99.90;;;;;;5027751;28;20427;-83
2023/03/03 01:05:35;;;;;;;30.38;16.85;;;1.90;99.90;;;;;;5025178;28;20033;-83
2023/03/03 01:08:02;;;;;;;31.92;17.27;;;1.90;99.90;;;;;;5038284;28;20086;-82
2023/03/03 01:10:31;;;;;;;33.13;17.65;;;1.90;99.90;;;;;;5061630;28;20040;-82
2023/03/03 01:12:57;;;;;;;30.25;16.98;;;2.00;99.90;;;;;;5067582;28;20049;-83
2023/03/03 01:15:23;;;;;;;30.40;17.13;;;2.00;99.90;;;;;;5056870;28;20056;-82
2023/03/03 01:17:49;;;;;;;28.80;16.38;;;1.90;99.90;;;;;;5066868;28;20045;-83
2023/03/03 01:20:15;;;;;;;30.63;16.80;;;1.90;99.90;;;;;;5054667;28;20120;-82
2023/03/03 01:22:41;;;;;;;28.90;17.08;;;1.90;99.90;;;;;;5041922;28;20517;-83
2023/03/03 01:25:07;;;;;;;31.30;17.38;;;2.00;99.90;;;;;;5035814;28;20086;-83
2023/03/03 01:27:34;;;;;;;29.02;16.85;;;2.00;99.90;;;;;;5020687;28;20041;-83
2023/03/03 01:30:00;;;;;;;29.35;16.15;;;1.90;99.90;;;;;;5029227;28;20037;-83
2023/03/03 01:32:27;;;;;;;27.48;15.48;;;1.90;99.90;;;;;;5046350;28;20384;-83
2023/03/03 01:34:56;;;;;;;28.42;15.25;;;1.90;99.90;;;;;;5027645;28;20038;-83
2023/03/03 01:37:21;;;;;;;27.45;15.35;;;1.90;99.90;;;;;;5031251;28;20143;-82
2023/03/03 01:39:49;;;;;;;27.83;15.63;;;1.90;99.90;;;;;;5028879;28;20499;-83
2023/03/03 01:42:14;;;;;;;31.50;17.58;;;1.90;99.90;;;;;;5033672;28;20049;-83
2023/03/03 01:44:40;;;;;;;31.88;15.70;;;1.90;99.90;;;;;;5042734;28;20044;-83
2023/03/03 01:47:35;;;;;;;34.33;18.15;;;1.90;99.90;;;;;;5053178;28;20072;-83
2023/03/03 01:50:11;;;;;;;30.40;16.70;;;1.90;99.90;;;;;;5019897;28;20041;-83
2023/03/03 01:52:43;;;;;;;29.95;15.45;;;1.90;99.90;;;;;;5034006;28;20048;-83
2023/03/03 01:55:16;;;;;;;30.02;15.63;;;1.90;99.90;;;;;;5027453;28;20044;-83
2023/03/03 01:57:47;;;;;;;34.45;16.58;;;1.90;99.90;;;;;;5035543;28;20521;-83
2023/03/03 02:00:13;;;;;;;30.48;15.70;;;1.90;99.90;;;;;;5035668;28;20052;-83
2023/03/03 02:02:41;;;;;;;29.67;15.35;;;1.80;99.90;;;;;;5045248;28;20037;-83
2023/03/03 02:05:07;;;;;;;33.13;15.65;;;1.90;99.90;;;;;;5048324;28;20029;-83
2023/03/03 02:07:33;;;;;;;27.27;15.45;;;1.80;99.90;;;;;;5038515;28;20076;-83
2023/03/03 02:10:12;;;;;;;29.98;14.10;;;1.90;99.90;;;;;;5040286;28;20040;-83
2023/03/03 02:12:49;;;;;;;27.98;15.30;;;1.80;99.90;;;;;;5039964;28;20636;-82
2023/03/03 02:15:24;;;;;;;30.40;15.25;;;1.80;99.90;;;;;;5034338;28;20036;-83
2023/03/03 02:17:54;;;;;;;31.30;15.50;;;1.80;99.90;;;;;;5028595;28;20115;-83
2023/03/03 02:20:39;;;;;;;36.03;15.45;;;1.80;99.90;;;;;;5036859;28;20497;-83
2023/03/03 02:23:23;;;;;;;39.20;16.17;;;1.80;99.90;;;;;;5031253;28;20041;-83
2023/03/03 02:26:01;;;;;;;59.63;18.67;;;1.80;99.90;;;;;;5029713;28;20141;-83
2023/03/03 02:28:29;;;;;;;40.55;16.35;;;1.80;99.90;;;;;;5046474;28;20098;-83
2023/03/03 02:30:57;;;;;;;30.98;15.18;;;1.80;99.90;;;;;;5028790;28;20075;-83
2023/03/03 02:33:23;;;;;;;32.78;15.90;;;1.80;99.90;;;;;;5034498;28;20041;-83
2023/03/03 02:35:49;;;;;;;39.13;16.92;;;1.90;99.90;;;;;;5027373;28;20033;-83
2023/03/03 02:38:33;;;;;;;55.63;17.35;;;1.80;99.90;;;;;;5051877;28;20102;-83
2023/03/03 02:41:14;;;;;;;;;;;1.80;99.90;;;;;;5035089;28;20499;-83
2023/03/03 02:43:52;;;;;;;34.22;16.00;;;1.80;99.90;;;;;;5047354;28;19927;-83
2023/03/03 02:46:20;;;;;;;34.00;16.13;;;1.80;99.90;;;;;;5025305;28;20044;-83
2023/03/03 02:48:46;;;;;;;43.70;16.48;;;1.80;99.90;;;;;;5035899;28;20034;-83
2023/03/03 02:51:11;;;;;;;29.48;15.07;;;1.80;99.90;;;;;;5025556;28;20211;-83
2023/03/03 02:53:37;;;;;;;26.08;13.52;;;1.90;99.90;;;;;;5038639;28;20037;-83
2023/03/03 02:56:03;;;;;;;34.75;13.93;;;1.90;99.90;;;;;;5034618;28;20071;-82
2023/03/03 02:58:29;;;;;;;28.15;14.15;;;1.90;99.90;;;;;;5035256;28;20052;-83
2023/03/03 03:00:56;;;;;;;27.15;14.48;;;1.90;99.90;;;;;;5041464;28;20052;-83
2023/03/03 03:03:22;;;;;;;26.35;13.32;;;1.90;99.90;;;;;;5033840;28;20044;-83
2023/03/03 03:05:47;;;;;;;25.90;12.05;;;1.90;99.90;;;;;;5046760;28;20040;-83
2023/03/03 03:08:14;;;;;;;25.17;12.57;;;1.90;99.90;;;;;;5032047;28;20033;-83
2023/03/03 03:10:39;;;;;;;24.02;12.55;;;1.90;99.90;;;;;;5032014;28;20076;-83
2023/03/03 03:13:05;;;;;;;25.73;13.10;;;1.90;99.90;;;;;;5048388;28;20065;-83
2023/03/03 03:15:30;;;;;;;43.08;15.82;;;2.00;99.90;;;;;;5045282;28;20479;-82
2023/03/03 03:17:56;;;;;;;40.83;14.77;;;2.00;99.90;;;;;;5047726;28;20040;-83
2023/03/03 03:20:22;;;;;;;33.95;14.10;;;2.00;99.90;;;;;;5045179;28;20418;-83
2023/03/03 03:22:47;;;;;;;48.70;14.40;;;1.90;99.90;;;;;;5042500;28;20033;-83
2023/03/03 03:25:13;;;;;;;37.50;14.30;;;1.90;99.90;;;;;;5030228;28;20552;-83
2023/03/03 03:27:39;;;;;;;38.65;15.23;;;1.90;99.90;;;;;;5048732;28;20024;-83
2023/03/03 03:30:05;;;;;;;37.80;13.93;;;2.00;99.90;;;;;;5048023;28;20052;-83
2023/03/03 03:32:30;;;;;;;46.78;14.70;;;2.00;99.90;;;;;;5032362;28;20044;-83
2023/03/03 03:34:56;;;;;;;28.45;13.43;;;2.00;99.90;;;;;;5040187;28;20411;-83
2023/03/03 03:37:22;;;;;;;31.13;13.25;;;2.00;99.90;;;;;;5045475;28;20060;-83
2023/03/03 03:39:47;;;;;;;50.55;15.13;;;1.90;99.90;;;;;;5051588;28;20032;-83
2023/03/03 03:42:13;;;;;;;48.47;15.07;;;2.00;99.90;;;;;;5028955;28;20045;-83
2023/03/03 03:44:39;;;;;;;69.03;17.60;;;2.00;99.90;;;;;;5030726;28;20030;-83
2023/03/03 03:47:05;;;;;;;56.20;15.82;;;2.00;99.90;;;;;;5044905;28;20061;-83
2023/03/03 03:49:30;;;;;;;31.27;14.45;;;2.00;99.90;;;;;;5045682;28;20041;-82
2023/03/03 03:51:56;;;;;;;76.05;17.95;;;1.90;99.90;;;;;;5035688;28;20044;-83
2023/03/03 03:54:22;;;;;;;44.38;14.30;;;2.00;99.90;;;;;;5030158;28;20037;-83
2023/03/03 03:56:47;;;;;;;47.92;14.35;;;2.00;99.90;;;;;;5050598;28;20040;-83
2023/03/03 03:59:15;;;;;;;36.40;14.20;;;2.00;99.90;;;;;;5039184;28;20033;-83
2023/03/03 04:01:41;;;;;;;34.80;14.15;;;1.90;99.90;;;;;;5037910;28;20045;-83
2023/03/03 04:04:06;;;;;;;38.53;14.35;;;2.00;99.90;;;;;;5047803;28;20036;-81
2023/03/03 04:06:32;;;;;;;82.35;19.40;;;2.00;99.90;;;;;;5026836;28;20122;-82
2023/03/03 04:08:58;;;;;;;89.28;17.92;;;2.00;99.90;;;;;;5052316;28;21073;-82
2023/03/03 04:11:23;;;;;;;43.72;12.63;;;2.00;99.90;;;;;;5024610;28;20087;-82
2023/03/03 04:13:49;;;;;;;50.03;15.38;;;2.00;99.90;;;;;;5037618;28;20040;-82
2023/03/03 04:16:15;;;;;;;30.63;13.45;;;1.90;99.90;;;;;;5052327;28;20245;-82
2023/03/03 04:18:41;;;;;;;33.42;13.25;;;2.00;99.90;;;;;;5033104;28;20319;-82
2023/03/03 04:21:11;;;;;;;34.88;14.30;;;2.00;99.90;;;;;;5040087;28;20120;-82
2023/03/03 04:23:37;;;;;;;34.20;13.38;;;2.00;99.90;;;;;;5040390;28;20029;-81
2023/03/03 04:26:03;;;;;;;36.70;13.70;;;2.00;99.90;;;;;;5033435;28;20514;-82
2023/03/03 04:28:28;;;;;;;31.23;13.15;;;2.00;99.90;;;;;;5035508;28;20033;-82
2023/03/03 04:30:54;;;;;;;42.65;13.95;;;2.00;99.90;;;;;;5051915;28;20468;-82
2023/03/03 04:33:20;;;;;;;32.25;13.40;;;2.00;99.90;;;;;;5025949;28;20464;-81
2023/03/03 04:35:46;;;;;;;36.03;13.38;;;2.00;99.90;;;;;;5020586;28;20068;-83
2023/03/03 04:38:11;;;;;;;50.10;15.70;;;2.00;99.90;;;;;;5023805;28;20068;-81
2023/03/03 04:40:40;;;;;;;30.50;13.07;;;2.00;99.90;;;;;;5036027;28;20243;-81
2023/03/03 04:43:06;;;;;;;47.80;13.38;;;2.00;99.90;;;;;;5031021;28;20076;-81
2023/03/03 04:45:32;;;;;;;42.83;12.90;;;2.00;99.90;;;;;;5031751;28;20593;-81
2023/03/03 04:47:58;;;;;;;57.45;14.30;;;2.00;99.90;;;;;;5020956;28;20135;-83
2023/03/03 04:50:23;;;;;;;64.03;13.90;;;2.00;99.90;;;;;;5044252;28;20122;-82
2023/03/03 04:52:49;;;;;;;105.03;15.32;;;2.10;99.90;;;;;;5035046;28;20491;-83
2023/03/03 04:55:15;;;;;;;84.22;18.08;;;2.00;99.90;;;;;;5040025;28;20518;-82
2023/03/03 04:57:42;;;;;;;74.45;15.35;;;2.00;99.90;;;;;;5041465;28;20037;-82
2023/03/03 05:00:09;;;;;;;44.67;13.73;;;2.00;99.90;;;;;;5045799;28;20047;-82
2023/03/03 05:02:35;;;;;;;200.00;29.45;;;2.00;99.90;;;;;;5021197;28;20041;-82
2023/03/03 05:05:00;;;;;;;40.22;13.27;;;2.00;99.90;;;;;;5018244;28;20037;-82
2023/03/03 05:07:26;;;;;;;61.72;14.23;;;1.90;99.90;;;;;;5031837;28;20175;-82
2023/03/03 05:09:54;;;;;;;52.95;14.73;;;2.00;99.90;;;;;;5030327;28;20087;-82
2023/03/03 05:12:20;;;;;;;59.90;14.82;;;2.00;99.90;;;;;;5048172;28;20037;-82
2023/03/03 05:14:45;;;;;;;158.07;25.52;;;2.00;99.90;;;;;;5051600;28;20048;-82
2023/03/03 05:17:11;;;;;;;66.07;16.55;;;2.00;99.90;;;;;;5027838;28;20049;-82
2023/03/03 05:19:36;;;;;;;48.58;12.93;;;2.00;99.90;;;;;;5018662;28;20037;-82
2023/03/03 05:22:02;;;;;;;43.67;13.23;;;2.00;99.90;;;;;;5047221;28;20045;-82
2023/03/03 05:24:28;;;;;;;39.42;14.07;;;2.00;99.90;;;;;;5035396;28;20384;-82
2023/03/03 05:26:54;;;;;;;56.97;13.82;;;2.00;99.90;;;;;;5026094;28;20034;-82
2023/03/03 05:29:19;;;;;;;41.55;13.75;;;2.10;99.90;;;;;;5025611;28;20498;-82
2023/03/03 05:31:45;;;;;;;46.13;13.98;;;2.00;99.90;;;;;;5023319;28;20065;-82
2023/03/03 05:34:11;;;;;;;60.78;13.65;;;2.00;99.90;;;;;;5045905;28;20036;-82
2023/03/03 05:36:36;;;;;;;36.80;13.18;;;2.10;99.90;;;;;;5031928;28;20079;-82
2023/03/03 05:39:03;;;;;;;35.28;11.35;;;2.00;99.90;;;;;;5031472;28;20029;-81
2023/03/03 05:41:28;;;;;;;34.15;12.88;;;2.00;99.90;;;;;;5050629;28;20457;-82
2023/03/03 05:43:54;;;;;;;44.42;13.65;;;2.10;99.90;;;;;;5051269;28;20033;-82
2023/03/03 05:46:19;;;;;;;34.28;12.48;;;2.10;99.90;;;;;;5050004;28;20090;-82
2023/03/03 05:48:46;;;;;;;36.58;12.32;;;2.10;99.90;;;;;;5019819;28;20164;-82
2023/03/03 05:51:12;;;;;;;42.08;14.82;;;2.10;99.90;;;;;;5021145;28;20035;-82
2023/03/03 05:53:37;;;;;;;25.10;12.18;;;2.10;99.90;;;;;;5045718;28;20131;-82
2023/03/03 05:56:03;;;;;;;37.42;12.93;;;2.10;99.90;;;;;;5044422;28;20033;-82
2023/03/03 05:58:29;;;;;;;26.85;12.30;;;2.20;99.90;;;;;;5049128;28;20097;-82
2023/03/03 06:00:55;;;;;;;33.28;12.85;;;2.10;99.90;;;;;;5033541;28;20171;-82
2023/03/03 06:03:21;;;;;;;35.95;12.25;;;2.20;99.90;;;;;;5032696;28;20116;-82
2023/03/03 06:05:49;;;;;;;34.20;13.02;;;2.20;99.90;;;;;;5024221;28;20034;-82
2023/03/03 06:08:15;;;;;;;68.20;17.55;;;2.20;99.90;;;;;;5029237;28;20032;-82
2023/03/03 06:10:42;;;;;;;25.40;12.15;;;2.20;99.90;;;;;;5021709;28;20041;-82
2023/03/03 06:13:07;;;;;;;116.90;46.85;;;2.20;99.90;;;;;;5026192;28;20120;-82
2023/03/03 06:15:33;;;;;;;78.22;35.55;;;2.20;99.90;;;;;;5018426;28;20077;-82
2023/03/03 06:17:59;;;;;;;56.88;24.55;;;2.20;99.90;;;;;;5042951;28;20032;-82
2023/03/03 06:20:24;;;;;;;34.97;16.45;;;2.20;99.90;;;;;;5026017;28;20041;-83
2023/03/03 06:22:50;;;;;;;31.73;14.43;;;2.20;99.90;;;;;;5040941;28;20579;-82
2023/03/03 06:25:16;;;;;;;29.05;13.32;;;2.30;99.90;;;;;;5046833;28;20033;-82
2023/03/03 06:27:41;;;;;;;29.90;13.73;;;2.30;99.90;;;;;;5047559;28;20044;-82
2023/03/03 06:30:08;;;;;;;24.70;11.32;;;2.20;99.90;;;;;;5031016;28;20040;-83
2023/03/03 06:32:33;;;;;;;25.77;11.95;;;2.30;99.90;;;;;;5037567;28;20053;-82
2023/03/03 06:34:59;;;;;;;43.53;14.93;;;2.30;99.90;;;;;;5027480;28;20040;-82
2023/03/03 06:37:25;;;;;;;28.90;13.70;;;2.30;99.90;;;;;;5043483;28;20049;-79
2023/03/03 06:39:51;;;;;;;33.35;12.85;;;2.40;99.90;;;;;;5042755;28;20041;-83
2023/03/03 06:42:20;;;;;;;28.48;13.18;;;2.40;99.90;;;;;;5039986;28;20041;-82
2023/03/03 06:44:49;;;;;;;28.25;13.18;;;2.40;99.90;;;;;;5027679;28;20068;-82
2023/03/03 06:47:15;;;;;;;25.52;13.05;;;2.40;99.90;;;;;;5028610;28;20036;-81
2023/03/03 06:49:40;;;;;;;26.95;12.82;;;2.40;99.90;;;;;;5043056;28;20041;-82
2023/03/03 06:52:29;;;;;;;30.33;13.38;;;2.40;99.90;;;;;;5042772;28;20111;-82
2023/03/03 06:54:58;;;;;;;33.00;13.32;;;2.50;99.90;;;;;;5042296;28;20037;-82
2023/03/03 06:57:28;;;;;;;29.10;13.63;;;2.50;99.90;;;;;;5028791;28;20127;-82
2023/03/03 07:00:11;;;;;;;35.70;15.75;;;2.40;99.90;;;;;;5045373;28;20063;-82
2023/03/03 07:02:37;;;;;;;33.07;14.47;;;2.50;99.90;;;;;;5043828;28;20283;-82
2023/03/03 07:05:11;;;;;;;40.53;15.88;;;2.50;99.90;;;;;;5034048;28;20036;-82
2023/03/03 07:07:37;;;;;;;;;;;2.50;99.90;;;;;;5027595;28;20063;-82
2023/03/03 07:10:15;;;;;;;42.53;15.30;;;2.60;99.90;;;;;;5034840;28;19920;-82
2023/03/03 07:12:40;;;;;;;35.22;16.73;;;2.60;99.90;;;;;;5060742;28;20037;-82
2023/03/03 07:15:17;;;;;;;43.05;16.85;;;2.60;99.90;;;;;;5052351;28;20044;-82
2023/03/03 07:17:46;;;;;;;47.90;17.60;;;2.60;99.90;;;;;;5049954;28;20517;-82
2023/03/03 07:20:20;;;;;;;37.75;15.10;;;2.60;99.90;;;;;;5030188;28;20041;-82
2023/03/03 07:22:46;;;;;;;30.65;14.95;;;2.70;99.90;;;;;;5047381;28;20061;-82
2023/03/03 07:25:27;;;;;;;42.20;15.88;;;2.80;99.90;;;;;;5070783;28;20037;-81
2023/03/03 07:27:58;;;;;;;40.45;15.90;;;2.80;99.90;;;;;;5065931;28;20059;-81
2023/03/03 07:30:27;;;;;;;34.03;15.38;;;2.90;99.90;;;;;;5056887;28;20033;-82
2023/03/03 07:32:58;;;;;;;36.55;14.55;;;2.90;99.90;;;;;;5049284;28;20506;-82
2023/03/03 07:35:39;;;;;;;32.85;15.43;;;2.90;99.90;;;;;;5054663;28;20040;-83
2023/03/03 07:38:23;;;;;;;38.20;16.17;;;3.00;99.90;;;;;;5037487;28;20082;-82
2023/03/03 07:40:54;;;;;;;33.17;14.15;;;3.00;99.90;;;;;;5046939;28;20517;-82
2023/03/03 07:43:27;;;;;;;31.13;14.30;;;3.10;99.90;;;;;;5048907;28;20056;-82
2023/03/03 07:46:02;;;;;;;34.60;14.30;;;3.10;99.90;;;;;;5036746;28;20053;-82
2023/03/03 07:48:35;;;;;;;29.20;14.20;;;3.20;99.90;;;;;;5032700;28;20127;-82
2023/03/03 07:51:10;;;;;;;29.98;13.20;;;3.20;99.90;;;;;;5053348;28;20025;-79
2023/03/03 07:53:36;;;;;;;31.02;15.00;;;3.30;99.90;;;;;;5044032;28;20037;-82
2023/03/03 07:56:18;;;;;;;27.00;13.15;;;3.40;99.90;;;;;;5047929;28;20072;-82
2023/03/03 07:58:44;;;;;;;29.05;14.52;;;3.40;99.90;;;;;;5026025;28;20041;-82
2023/03/03 08:01:41;;;;;;;30.77;14.32;;;3.50;99.90;;;;;;5030524;28;20033;-82
2023/03/03 08:04:56;;;;;;;30.52;13.25;;;3.50;99.90;;;;;;4996984;28;20073;-82
2023/03/03 08:07:22;;;;;;;23.83;13.07;;;3.60;99.90;;;;;;5045747;28;20159;-82
2023/03/03 08:10:01;;;;;;;34.63;16.23;;;3.60;99.90;;;;;;5032052;28;20063;-81
2023/03/03 08:12:38;;;;;;;29.17;15.35;;;3.70;99.90;;;;;;5030524;28;20041;-81
2023/03/03 08:15:24;;;;;;;33.97;15.77;;;3.80;99.90;;;;;;5038376;28;20037;-81
2023/03/03 08:17:52;;;;;;;28.92;15.25;;;3.80;99.90;;;;;;5052994;28;20128;-83
2023/03/03 08:20:33;;;;;;;32.15;14.45;;;3.90;99.90;;;;;;5061938;28;20074;-80
2023/03/03 08:22:59;;;;;;;28.02;13.63;;;4.00;99.90;;;;;;5061893;28;20037;-81
2023/03/03 08:25:24;;;;;;;25.30;13.13;;;4.10;99.90;;;;;;5053434;28;20062;-81
2023/03/03 08:27:50;;;;;;;23.27;12.30;;;4.20;99.90;;;;;;5054315;28;20033;-81
2023/03/03 08:30:16;;;;;;;28.48;13.63;;;4.30;99.90;;;;;;5037872;28;20033;-82
2023/03/03 08:32:43;;;;;;;24.13;13.65;;;4.20;99.90;;;;;;5037531;28;20060;-81
2023/03/03 08:35:09;;;;;;;20.45;12.27;;;4.30;99.90;;;;;;5037823;28;20072;-84
2023/03/03 08:37:35;;;;;;;20.73;11.90;;;4.30;99.90;;;;;;5049536;28;20045;-85
2023/03/03 08:40:01;;;;;;;20.63;11.73;;;4.30;99.90;;;;;;5054967;28;20047;-82
2023/03/03 08:42:28;;;;;;;21.35;10.90;;;4.30;99.90;;;;;;5040962;28;20037;-82
2023/03/03 08:44:54;;;;;;;20.05;10.68;;;4.20;99.90;;;;;;5030411;28;20056;-82
2023/03/03 08:47:20;;;;;;;21.13;10.13;;;4.40;99.90;;;;;;5027071;28;20492;-82
2023/03/03 08:49:46;;;;;;;20.55;10.27;;;4.30;99.90;;;;;;5048134;28;20055;-82
2023/03/03 08:52:11;;;;;;;20.92;9.68;;;4.40;99.90;;;;;;5051555;28;20029;-81
2023/03/03 08:54:37;;;;;;;17.70;10.32;;;4.40;99.90;;;;;;5052181;28;20159;-82
2023/03/03 08:57:03;;;;;;;17.20;10.20;;;4.50;99.90;;;;;;5031059;28;20041;-82
2023/03/03 08:59:36;;;;;;;16.58;8.95;;;5.00;99.90;;;;;;5036825;28;20523;-82
2023/03/03 09:02:04;;;;;;;19.25;9.00;;;5.60;99.90;;;;;;5027394;28;20048;-82
2023/03/03 09:04:30;;;;;;;14.65;9.00;;;6.00;99.90;;;;;;5030413;28;20063;-82
2023/03/03 09:06:56;;;;;;;21.00;10.15;;;6.30;99.90;;;;;;5055560;28;20124;-83
2023/03/03 09:09:22;;;;;;;14.50;8.25;;;6.80;99.90;;;;;;5052913;28;20060;-82
2023/03/03 09:11:48;;;;;;;15.10;8.63;;;7.30;99.90;;;;;;5045555;28;20087;-72
2023/03/03 09:14:16;;;;;;;14.35;8.63;;;8.10;99.90;;;;;;5043018;28;20051;-73
2023/03/03 09:16:53;;;;;;;13.32;8.10;;;8.50;99.90;;;;;;5050921;28;20063;-81
2023/03/03 09:19:31;;;;;;;13.93;7.40;;;8.40;99.90;;;;;;5026336;28;20036;-80
2023/03/03 09:22:18;;;;;;;14.35;7.97;;;8.50;99.90;;;;;;5047835;28;20072;-80
2023/03/03 09:24:46;;;;;;;11.85;7.35;;;8.50;99.90;;;;;;5027455;28;20037;-79
2023/03/03 09:27:23;;;;;;;13.75;8.35;;;8.40;99.90;;;;;;5029637;28;20136;-80
2023/03/03 09:29:49;;;;;;;13.93;7.53;;;8.20;99.90;;;;;;5033769;28;20033;-80
2023/03/03 09:32:32;;;;;;;11.00;7.63;;;8.00;99.90;;;;;;5026198;28;20103;-80
2023/03/03 09:34:59;;;;;;;10.05;6.57;;;7.80;99.90;;;;;;5041795;28;20123;-80
2023/03/03 09:37:35;;;;;;;10.35;7.22;;;7.40;99.90;;;;;;5031110;28;20037;-79
2023/03/03 09:40:26;;;;;;;11.38;7.43;;;7.20;99.90;;;;;;5049860;28;20075;-80
2023/03/03 09:43:03;;;;;;;14.05;7.95;;;7.10;99.90;;;;;;5033460;28;20041;-79
2023/03/03 09:45:47;;;;;;;12.82;7.93;;;7.00;99.90;;;;;;5027338;28;20045;-80
2023/03/03 09:48:16;;;;;;;;;;;7.30;99.90;;;;;;5038118;28;20044;-79
2023/03/03 09:51:10;;;;;;;11.65;7.47;;;8.00;99.90;;;;;;5038432;28;19917;-80
2023/03/03 09:53:51;;;;;;;10.20;6.50;;;9.20;99.90;;;;;;5043015;28;20112;-80
2023/03/03 09:56:50;;;;;;;9.77;6.50;;;9.70;99.90;;;;;;5032715;28;20487;-80
2023/03/03 09:59:33;;;;;;;9.05;6.00;;;9.70;99.90;;;;;;5053092;28;20128;-80
2023/03/03 10:02:34;;;;;;;8.93;6.28;;;9.50;99.90;;;;;;5049403;28;20061;-80
2023/03/03 10:05:25;;;;;;;9.35;6.30;;;9.30;99.90;;;;;;4994951;28;20077;-81
2023/03/03 10:08:04;;;;;;;11.50;6.80;;;9.10;99.90;;;;;;5048727;28;20068;-80
2023/03/03 10:10:44;;;;;;;8.88;5.43;;;8.80;99.90;;;;;;5033659;28;20037;-80
2023/03/03 10:13:38;;;;;;;10.32;6.15;;;8.50;99.90;;;;;;5028112;28;20037;-80
2023/03/03 10:16:16;;;;;;;9.43;6.20;;;8.50;99.90;;;;;;5050027;28;20072;-80
2023/03/03 10:19:08;;;;;;;9.48;5.72;;;8.30;99.90;;;;;;5052191;28;20048;-79
2023/03/03 10:22:11;;;;;;;8.13;6.10;;;8.30;99.90;;;;;;5020774;28;20040;-80
2023/03/03 10:25:05;;;;;;;8.20;6.15;;;8.20;99.90;;;;;;5033951;28;20033;-80
2023/03/03 10:28:00;;;;;;;12.05;6.65;;;8.00;99.90;;;;;;5048471;28;20033;-80
2023/03/03 10:30:44;;;;;;;11.70;7.50;;;7.70;99.90;;;;;;5043000;28;20169;-80
2023/03/03 10:33:29;;;;;;;10.52;7.45;;;7.60;99.90;;;;;;5045909;28;20040;-80
2023/03/03 10:36:20;;;;;;;10.00;7.25;;;7.60;99.90;;;;;;5045799;28;20037;-80
2023/03/03 10:38:57;;;;;;;13.43;7.88;;;7.40;99.90;;;;;;5037890;28;20100;-80
2023/03/03 10:41:41;;;;;;;13.07;8.27;;;7.40;99.90;;;;;;5038125;28;20084;-80
2023/03/03 10:44:28;;;;;;;13.48;8.00;;;7.30;99.90;;;;;;5035192;28;20100;-80
2023/03/03 10:47:00;;;;;;;13.30;7.57;;;7.20;99.90;;;;;;5030567;28;20075;-80
2023/03/03 10:49:38;;;;;;;13.77;7.68;;;7.10;99.90;;;;;;5041057;28;20073;-80
2023/03/03 10:52:21;;;;;;;10.77;7.18;;;7.10;99.90;;;;;;5038196;28;20048;-80
2023/03/03 10:55:12;;;;;;;11.45;7.25;;;6.90;99.90;;;;;;5030405;28;20037;-80
2023/03/03 10:57:51;;;;;;;13.75;7.55;;;7.00;99.90;;;;;;5052542;28;20044;-80
2023/03/03 11:00:26;;;;;;;11.73;7.30;;;7.10;99.90;;;;;;5031555;28;20116;-80
2023/03/03 11:03:07;;;;;;;11.48;7.47;;;7.00;99.90;;;;;;5038591;28;20218;-80
2023/03/03 11:05:56;;;;;;;10.63;7.22;;;7.10;99.90;;;;;;5058047;28;20513;-80
2023/03/03 11:08:44;;;;;;;17.33;8.55;;;7.10;99.90;;;;;;5053255;28;20094;-80
2023/03/03 11:11:35;;;;;;;12.38;7.53;;;7.20;99.90;;;;;;5025657;28;20487;-80
2023/03/03 11:14:30;;;;;;;11.02;7.38;;;7.10;99.90;;;;;;5049887;28;20041;-80
2023/03/03 11:17:46;;;;;;;12.80;7.10;;;7.10;99.90;;;;;;5046956;28;20565;-81
2023/03/03 11:20:20;;;;;;;11.48;7.05;;;7.10;99.90;;;;;;5055023;28;20107;-80
2023/03/03 11:22:57;;;;;;;11.32;7.00;;;7.20;99.90;;;;;;5052051;28;20037;-81
2023/03/03 11:25:37;;;;;;;9.38;7.28;;;7.10;99.90;;;;;;5039238;28;20060;-80
2023/03/03 11:28:21;;;;;;;9.85;6.93;;;7.10;99.90;;;;;;5044784;28;20045;-79
2023/03/03 11:31:09;;;;;;;9.30;6.38;;;7.10;99.90;;;;;;5044869;28;20030;-80
2023/03/03 11:33:40;;;;;;;12.38;6.80;;;7.20;99.90;;;;;;5035758;28;20049;-80
2023/03/03 11:36:12;;;;;;;9.88;6.75;;;7.20;99.90;;;;;;5040921;28;20038;-80
2023/03/03 11:38:40;;;;;;;10.65;6.72;;;7.30;99.90;;;;;;5035829;28;20067;-80
2023/03/03 11:41:12;;;;;;;9.68;6.35;;;7.40;99.90;;;;;;5054694;28;20445;-80
2023/03/03 11:43:46;;;;;;;10.88;6.70;;;7.50;99.90;;;;;;5035752;28;20065;-81
2023/03/03 11:46:25;;;;;;;8.50;6.93;;;7.70;99.90;;;;;;5036889;28;20090;-75
2023/03/03 11:49:05;;;;;;;11.32;7.32;;;7.80;99.90;;;;;;5037727;28;20030;-82
2023/03/03 11:51:52;;;;;;;9.70;6.57;;;7.80;99.90;;;;;;5048776;28;20036;-82
2023/03/03 11:54:23;;;;;;;10.98;6.95;;;7.90;99.90;;;;;;5030475;28;20037;-82
2023/03/03 11:56:53;;;;;;;10.45;5.88;;;7.90;99.90;;;;;;5045979;28;20045;-84
2023/03/03 11:59:32;;;;;;;9.25;6.18;;;7.90;99.90;;;;;;5038350;28;20094;-83
2023/03/03 12:02:22;;;;;;;9.70;5.40;;;8.10;99.90;;;;;;5031235;28;20037;-81
2023/03/03 12:04:54;;;;;;;10.32;6.40;;;8.10;99.90;;;;;;5028601;28;20037;-82
2023/03/03 12:07:49;;;;;;;9.35;5.20;;;8.20;99.90;;;;;;5038084;28;20037;-81
2023/03/03 12:10:49;;;;;;;5.93;4.07;;;8.20;99.90;;;;;;5045834;28;20135;-80
2023/03/03 12:13:44;;;;;;;9.05;4.57;;;8.30;99.90;;;;;;5048882;28;20040;-81
2023/03/03 12:16:38;;;;;;;6.93;5.00;;;8.50;99.90;;;;;;5030741;28;20422;-81
2023/03/03 12:19:28;;;;;;;8.60;4.30;;;8.60;99.90;;;;;;5027135;28;20052;-82
2023/03/03 12:22:07;;;;;;;7.43;4.95;;;8.70;99.90;;;;;;5044007;28;20117;-80
2023/03/03 12:24:32;;;;;;;8.65;5.32;;;9.20;99.90;;;;;;5034369;28;20076;-80
2023/03/03 12:27:19;;;;;;;9.57;5.45;;;9.30;99.90;;;;;;5055062;28;20533;-81
2023/03/03 12:30:06;;;;;;;8.68;5.38;;;9.40;99.90;;;;;;5040564;28;22192;-81
2023/03/03 12:33:02;;;;;;;6.45;4.88;;;9.60;99.90;;;;;;5053792;28;20049;-81
2023/03/03 12:35:38;;;;;;;6.38;4.43;;;9.70;99.90;;;;;;5051692;28;20051;-80
2023/03/03 12:38:14;;;;;;;6.78;4.35;;;10.10;99.90;;;;;;5050450;28;20448;-80
2023/03/03 12:40:51;;;;;;;4.45;3.63;;;10.30;99.90;;;;;;5053534;28;20479;-81
2023/03/03 12:43:44;;;;;;;7.15;3.63;;;10.40;99.90;;;;;;5021102;28;20062;-80
2023/03/03 12:46:21;;;;;;;5.13;2.33;;;10.40;99.90;;;;;;5053018;28;20041;-81
2023/03/03 12:48:47;;;;;;;4.85;2.10;;;10.40;99.90;;;;;;5052529;28;20040;-81
2023/03/03 12:51:27;;;;;;;4.85;2.15;;;10.60;99.90;;;;;;5036313;28;20063;-80
2023/03/03 12:54:30;;;;;;;3.95;2.17;;;10.80;99.90;;;;;;5036186;28;20238;-81
2023/03/03 12:57:14;;;;;;;3.53;2.40;;;11.40;99.90;;;;;;5028133;28;20075;-82
2023/03/03 13:00:17;;;;;;;4.47;2.70;;;11.30;99.90;;;;;;5054264;28;20119;-81
2023/03/03 13:03:08;;;;;;;5.72;2.50;;;11.00;99.90;;;;;;5041780;28;20041;-82
2023/03/03 13:05:57;;;;;;;4.30;2.08;;;10.80;99.90;;;;;;5051414;28;20032;-81
2023/03/03 13:08:47;;;;;;;4.70;2.17;;;10.70;99.90;;;;;;5049873;28;20537;-81
2023/03/03 13:11:27;;;;;;;3.08;1.90;;;10.70;99.90;;;;;;5052640;28;20087;-81